Hlavní strana
METAR-TAF:

METAR-TAF

Letiště :

Letiště Hévíz

Hévíz, Maďarsko

zeměpisná šířka: 46-41-11N, zeměpisná délka: 017-09-33E, výška: 124 m

Aktuální stav počasí

Zpráva byla vytvořena před 28 minutami, v 15:15 UTC
Severní vítr 12 kt
Teplota 10°C
Vlhkost vzduchu 32%
Tlak 1033 hPa
Viditelnost 10 km a více
Žádná oblačnost pod 1500 m, nevyskytují se cumulonimby.

METAR: LHSM 201515Z 36012KT CAVOK 10/M06 Q1033 NOSIG

Čas: 16:43 (15:43 UTC)

Předpověď počasí

Zpráva byla vytvořena před 1 hodinou a 28 minutami, v 14:15 UTC
Předpověď platná od 20 v 15 UTC do 20 v 24 UTC
Severní vítr 11 kt
Viditelnost 10 km a více
Žádná oblačnost pod 1500 m, nevyskytují se cumulonimby.
Změna
od 20 v 15 UTC do 20 v 18 UTC
Severní vítr 6 kt

TAF: LHSM 201415Z 2015/2024 35011KT CAVOK BECMG 2015/2018 36006KT

Stav a předpovědi počasí z více než 4 000 letišť (zprávy METAR a TAF).

Červené a žluté tečky na mapě představují dostupné meteorologické stanice.

Když kurzor umístíte na tečku, zobrazí se název stanice.

Pak kliknutím zobrazíte stav a předpověď počasí.

Chcete-li změnit mapu, kliknutím na zelené tlačítko se znaménkem +mapu přiblížíte, kliknutím na zelené tlačítko se znaménkem – mapu oddálíte a kliknutím na zelené šipky přejdete na sousední mapy.


METAR-TAF: